GCRR/ACE METAR and TAF weather

Enter ICAO airport designator
Station Type Date Time Source
GCRR METAR 2020/06/05 10:30 UTC NOAA

GCRR 051030Z 08008KT 9999 FEW020 24/20 Q1015


Station Type Date Time Source
GCRR Decoded METAR 2020/06/05 10:30 UTC NOAA

Lanzarote / Aeropuerto, Spain (GCRR) 28-57N 013-36W 21M
Jun 05, 2020 - 06:30 AM EDT / 2020.06.05 1030 UTC
Wind: from the E (080 degrees) at 9 MPH (8 KT):0
Visibility: greater than 7 mile(s):0
Sky conditions: mostly clear
Temperature: 75 F (24 C)
Dew Point: 68 F (20 C)
Relative Humidity: 78%
Pressure (altimeter): 29.97 in. Hg (1015 hPa)
ob: GCRR 051030Z 08008KT 9999 FEW020 24/20 Q1015
cycle: 10

Station Type Date Time Source
GCRR TAF 2020/06/05 09:27 UTC NOAA

TAF GCRR 050800Z 0509/0609 14007KT 9999 FEW020 TX26/0511Z TN20/0606Z

Example: see airport list